Time;durP1;ratioP1;P1;durP2;ratioP2;P2;SDS_P1;SDS_P2;PMS_P1;PMS_P2;Temp;Humidity;BMP_temperature;BMP_pressure;BME280_temperature;BME280_humidity;BME280_pressure;Samples;Min_cycle;Max_cycle;Signal;HPM_P1;HPM_P2
2021/12/11 00:01:43;;;;;;;23.40;10.07;;;;;;;1.49;51.55;100467.56;4973921;28;20851;-72
2021/12/11 00:04:14;;;;;;;29.98;11.18;;;;;;;1.40;51.53;100467.66;4968777;28;20167;-71
2021/12/11 00:06:44;;;;;;;25.17;9.00;;;;;;;1.35;51.57;100469.38;4976318;28;20058;-71
2021/12/11 00:09:35;;;;;;;28.23;10.80;;;;;;;1.35;51.79;100466.81;4977006;28;20106;-75
2021/12/11 00:12:04;;;;;;;24.48;8.57;;;;;;;1.29;51.45;100469.44;4957761;28;20120;-71
2021/12/11 00:14:34;;;;;;;24.58;9.57;;;;;;;1.07;51.44;100469.56;4980047;28;20038;-71
2021/12/11 00:17:00;;;;;;;27.25;8.98;;;;;;;1.08;51.13;100468.72;4976251;28;20077;-71
2021/12/11 00:19:30;;;;;;;22.30;10.07;;;;;;;0.94;50.70;100478.25;4958073;28;20156;-71
2021/12/11 00:22:10;;;;;;;24.42;10.10;;;;;;;0.78;50.84;100481.78;4954354;28;20041;-72
2021/12/11 00:24:37;;;;;;;32.10;11.57;;;;;;;0.64;50.89;100489.59;4960195;28;20031;-71
2021/12/11 00:27:08;;;;;;;28.63;11.23;;;;;;;0.46;51.28;100493.09;4973583;28;20039;-71
2021/12/11 00:29:35;;;;;;;19.73;9.60;;;;;;;0.40;51.69;100495.69;4954670;28;20027;-71
2021/12/11 00:32:26;;;;;;;27.67;10.07;;;;;;;0.20;51.29;100494.03;4961526;28;20034;-71
2021/12/11 00:34:54;;;;;;;23.30;9.10;;;;;;;0.12;51.56;100506.03;4947789;28;20456;-71
2021/12/11 00:37:23;;;;;;;19.70;8.30;;;;;;;0.06;51.37;100511.22;4971284;28;20047;-71
2021/12/11 00:39:53;;;;;;;25.70;9.75;;;;;;;-0.05;51.47;100511.22;4978678;28;20034;-71
2021/12/11 00:42:23;;;;;;;29.73;10.73;;;;;;;-0.07;51.45;100515.50;4955464;28;20037;-71
2021/12/11 00:44:51;;;;;;;24.40;8.50;;;;;;;-0.08;51.63;100518.06;4957723;28;20089;-71
2021/12/11 00:47:20;;;;;;;29.67;9.75;;;;;;;-0.13;51.51;100521.50;4960185;28;20050;-71
2021/12/11 00:49:49;;;;;;;29.70;10.45;;;;;;;-0.19;51.21;100531.81;4958711;28;20038;-71
2021/12/11 00:52:14;;;;;;;29.13;11.25;;;;;;;-0.34;51.59;100529.25;4972577;28;20500;-71
2021/12/11 00:54:42;;;;;;;26.90;10.57;;;;;;;-0.36;51.61;100536.09;4958644;28;20049;-71
2021/12/11 00:57:19;;;;;;;26.17;9.38;;;;;;;-0.45;51.61;100534.38;4930087;28;20058;-71
2021/12/11 00:59:45;;;;;;;25.60;10.57;;;;;;;-0.50;51.83;100545.50;4951918;28;20037;-71
2021/12/11 01:02:12;;;;;;;25.55;10.23;;;;;;;-0.67;52.12;100554.03;4955472;28;20031;-71
2021/12/11 01:04:41;;;;;;;30.73;11.38;;;;;;;-0.66;51.98;100555.78;4960167;28;20131;-71
2021/12/11 01:07:19;;;;;;;30.65;10.10;;;;;;;-0.73;52.28;100564.28;4968764;28;20105;-71
2021/12/11 01:09:54;;;;;;;21.65;8.93;;;;;;;-0.72;52.21;100571.16;4974150;28;20673;-71
2021/12/11 01:12:30;;;;;;;23.40;8.68;;;;;;;-0.68;52.30;100572.00;4975165;28;20043;-71
2021/12/11 01:15:03;;;;;;;19.52;9.23;;;;;;;-0.69;52.24;100580.56;4976911;28;20201;-71
2021/12/11 01:17:48;;;;;;;27.67;9.93;;;;;;;-0.76;52.32;100579.69;4960648;28;20151;-71
2021/12/11 01:20:21;;;;;;;28.73;9.63;;;;;;;-0.87;52.18;100586.50;4961636;28;20038;-71
2021/12/11 01:22:48;;;;;;;25.75;8.25;;;;;;;-0.84;52.16;100587.38;4975227;28;20042;-72
2021/12/11 01:25:19;;;;;;;22.08;8.52;;;;;;;-0.77;51.80;100590.81;4949423;28;20034;-71
2021/12/11 01:27:49;;;;;;;20.88;9.20;;;;;;;-0.78;51.68;100599.34;4969408;28;20035;-72
2021/12/11 01:30:23;;;;;;;24.17;9.75;;;;;;;-0.84;52.15;100607.03;4972546;28;20023;-71
2021/12/11 01:32:49;;;;;;;32.88;9.52;;;;;;;-0.89;52.35;100601.03;4957137;28;20382;-71
2021/12/11 01:35:16;;;;;;;27.92;10.52;;;;;;;-1.02;52.73;100606.16;4982976;28;20088;-70
2021/12/11 01:37:42;;;;;;;25.10;9.43;;;;;;;-0.91;52.19;100613.84;4959325;28;20031;-71
2021/12/11 01:40:11;;;;;;;25.05;11.30;;;;;;;-0.88;52.31;100613.88;4957281;28;20484;-71
2021/12/11 01:42:39;;;;;;;22.38;9.20;;;;;;;-0.92;52.23;100619.84;4956312;28;20098;-71
2021/12/11 01:45:09;;;;;;;33.65;8.88;;;;;;;-0.97;52.02;100624.13;4984058;28;20037;-71
2021/12/11 01:47:38;;;;;;;19.52;9.70;;;;;;;-1.02;52.57;100621.53;4976950;28;20169;-71
2021/12/11 01:50:26;;;;;;;19.88;8.90;;;;;;;-0.98;52.29;100622.38;4980406;28;20034;-71
2021/12/11 01:53:06;;;;;;;24.42;8.63;;;;;;;-1.02;52.52;100629.25;4952723;28;20433;-72
2021/12/11 01:55:36;;;;;;;27.23;10.43;;;;;;;-0.93;52.41;100622.41;4958752;28;20035;-71
2021/12/11 01:58:05;;;;;;;25.27;9.80;;;;;;;-1.02;52.64;100638.63;4956944;28;20034;-71
2021/12/11 02:00:39;;;;;;;20.50;7.82;;;;;;;-0.95;52.64;100639.50;4957700;28;20038;-71
2021/12/11 02:03:14;;;;;;;27.45;10.65;;;;;;;-0.93;52.40;100655.75;4971493;28;20046;-71
2021/12/11 02:05:41;;;;;;;22.88;8.38;;;;;;;-1.08;52.09;100654.81;4954110;28;20638;-71
2021/12/11 02:08:25;;;;;;;24.58;9.55;;;;;;;-1.16;52.35;100661.63;4978136;28;20026;-71
2021/12/11 02:11:14;;;;;;;19.45;7.97;;;;;;;-1.09;52.18;100668.47;4959138;28;20543;-71
2021/12/11 02:13:44;;;;;;;22.33;9.82;;;;;;;-1.03;52.08;100675.41;4957185;28;20066;-70
2021/12/11 02:16:25;;;;;;;25.98;8.77;;;;;;;-1.14;52.30;100690.69;4957103;28;20512;-71
2021/12/11 02:19:05;;;;;;;22.95;9.00;;;;;;;-1.20;52.10;100690.66;4977061;28;20551;-72
2021/12/11 02:21:37;;;;;;;27.30;10.07;;;;;;;-1.22;52.00;100700.91;4966629;28;20030;-71
2021/12/11 02:24:10;;;;;;;22.53;8.70;;;;;;;-1.27;52.19;100707.72;4962685;28;20050;-71
2021/12/11 02:26:39;;;;;;;26.20;8.95;;;;;;;-1.30;52.07;100710.25;4973022;28;20031;-71
2021/12/11 02:29:13;;;;;;;22.63;8.73;;;;;;;-1.35;52.21;100706.81;4976719;28;20127;-71
2021/12/11 02:31:48;;;;;;;17.08;8.32;;;;;;;-1.24;52.13;100706.88;4977134;28;20061;-71
2021/12/11 02:34:17;;;;;;;27.92;8.80;;;;;;;-1.20;52.07;100713.72;4949453;28;20069;-71
2021/12/11 02:37:03;;;;;;;25.77;8.38;;;;;;;-1.16;52.05;100715.47;4963291;28;20034;-70
2021/12/11 02:39:36;;;;;;;24.27;9.75;;;;;;;-1.30;51.84;100714.53;4966646;28;20030;-71
2021/12/11 02:42:30;;;;;;;29.90;10.15;;;;;;;-1.35;52.51;100716.19;4976719;28;20034;-70
2021/12/11 02:44:58;;;;;;;29.88;9.32;;;;;;;-1.30;52.33;100712.81;4951598;28;20030;-71
2021/12/11 02:47:41;;;;;;;25.58;9.80;;;;;;;-1.31;52.23;100720.50;4965665;28;20046;-71
2021/12/11 02:50:16;;;;;;;25.38;8.63;;;;;;;-1.20;52.32;100726.56;4974752;28;20031;-71
2021/12/11 02:52:46;;;;;;;25.05;10.52;;;;;;;-1.27;52.17;100724.81;4965367;28;20064;-72
2021/12/11 02:55:19;;;;;;;21.48;8.75;;;;;;;-1.34;52.06;100723.91;4963595;28;20062;-72
2021/12/11 02:57:53;;;;;;;31.70;8.82;;;;;;;-1.50;52.12;100727.22;4949085;28;20082;-71
2021/12/11 03:00:29;;;;;;;26.83;9.65;;;;;;;-1.64;52.53;100722.84;4964466;28;20124;-71
2021/12/11 03:03:04;;;;;;;27.67;10.63;;;;;;;-1.70;52.49;100730.47;4963674;28;20038;-71
2021/12/11 03:05:42;;;;;;;25.30;8.80;;;;;;;-1.65;52.32;100731.38;4949610;28;20027;-72
2021/12/11 03:08:12;;;;;;;20.98;9.32;;;;;;;-1.59;52.40;100733.97;4964955;28;20052;-71
2021/12/11 03:10:40;;;;;;;31.45;10.07;;;;;;;-1.49;52.44;100729.78;4957327;28;20062;-72
2021/12/11 03:13:06;;;;;;;21.92;8.95;;;;;;;-1.48;52.73;100733.22;4978562;28;20038;-71
2021/12/11 03:15:32;;;;;;;29.50;10.02;;;;;;;-1.44;53.33;100733.25;4963372;28;20037;-71
2021/12/11 03:17:59;;;;;;;27.33;8.98;;;;;;;-1.34;53.60;100739.28;4944283;28;20046;-71
2021/12/11 03:20:25;;;;;;;33.35;9.85;;;;;;;-1.29;53.52;100742.75;4978580;28;20030;-71
2021/12/11 03:22:52;;;;;;;21.92;9.05;;;;;;;-1.32;53.35;100752.13;4977758;28;20504;-72
2021/12/11 03:25:23;;;;;;;23.92;10.40;;;;;;;-1.31;53.13;100739.31;4969149;28;20030;-71
2021/12/11 03:27:48;;;;;;;30.23;9.77;;;;;;;-1.31;53.31;100746.16;4976192;28;20496;-71
2021/12/11 03:30:22;;;;;;;29.80;11.25;;;;;;;-1.45;54.30;100746.91;4976132;28;20070;-71
2021/12/11 03:32:54;;;;;;;32.53;10.32;;;;;;;-1.39;53.73;100748.66;4959228;28;20043;-71
2021/12/11 03:35:20;;;;;;;22.38;9.25;;;;;;;-1.28;53.35;100764.13;4944079;28;20037;-71
2021/12/11 03:37:46;;;;;;;20.35;9.07;;;;;;;-1.36;53.37;100764.06;4974934;28;20137;-72
2021/12/11 03:40:12;;;;;;;25.63;9.13;;;;;;;-1.35;53.52;100767.47;4983226;28;20555;-71
2021/12/11 03:42:39;;;;;;;29.92;10.52;;;;;;;-1.36;53.66;100771.75;4965814;28;20034;-71
2021/12/11 03:45:11;;;;;;;24.00;10.52;;;;;;;-1.40;53.74;100764.88;4979488;28;20062;-71
2021/12/11 03:47:42;;;;;;;27.85;10.25;;;;;;;-1.44;53.09;100771.72;4977868;28;20058;-71
2021/12/11 03:50:12;;;;;;;24.85;9.45;;;;;;;-1.47;53.15;100774.22;4947110;28;20609;-71
2021/12/11 03:52:40;;;;;;;32.67;9.80;;;;;;;-1.62;53.99;100776.66;4978132;28;20177;-71
2021/12/11 03:55:07;;;;;;;31.73;10.45;;;;;;;-1.56;53.10;100774.16;4957034;28;20033;-71
2021/12/11 03:57:32;;;;;;;32.38;11.45;;;;;;;-1.66;53.24;100785.19;4946737;28;20116;-72
2021/12/11 03:59:58;;;;;;;29.02;10.65;;;;;;;-1.71;53.19;100785.16;4957028;28;20726;-72
2021/12/11 04:02:33;;;;;;;26.15;10.90;;;;;;;-1.74;53.40;100794.50;4951317;28;20097;-71
2021/12/11 04:05:02;;;;;;;28.75;9.93;;;;;;;-1.64;53.27;100793.75;4977859;28;20034;-71
2021/12/11 04:07:33;;;;;;;25.55;8.40;;;;;;;-1.66;53.18;100790.31;4966489;28;20043;-71
2021/12/11 04:09:59;;;;;;;28.58;9.80;;;;;;;-1.68;52.84;100799.69;4976524;28;20117;-71
2021/12/11 04:12:26;;;;;;;22.70;8.65;;;;;;;-1.69;52.78;100803.06;4974731;28;20129;-72
2021/12/11 04:14:54;;;;;;;22.17;10.35;;;;;;;-1.79;52.71;100814.97;4950298;28;20047;-70
2021/12/11 04:17:22;;;;;;;27.02;8.98;;;;;;;-1.84;53.09;100814.91;4950449;28;20134;-72
2021/12/11 04:19:49;;;;;;;28.33;11.52;;;;;;;-1.84;53.14;100827.72;4958004;28;20038;-71
2021/12/11 04:22:15;;;;;;;29.08;9.32;;;;;;;-1.76;53.46;100826.94;4978571;28;20046;-72
2021/12/11 04:24:42;;;;;;;26.73;9.80;;;;;;;-1.76;53.69;100824.38;4966723;28;20037;-71
2021/12/11 04:27:11;;;;;;;22.40;9.27;;;;;;;-1.68;53.24;100833.00;4958658;28;20121;-71
2021/12/11 04:29:37;;;;;;;24.05;10.27;;;;;;;-1.67;53.15;100852.66;4954800;28;20058;-71
2021/12/11 04:32:04;;;;;;;27.45;10.70;;;;;;;-1.66;53.65;100844.13;4948454;28;20569;-72
2021/12/11 04:34:31;;;;;;;33.22;10.07;;;;;;;-1.81;54.86;100849.94;4953747;28;20122;-71
2021/12/11 04:37:02;;;;;;;22.15;9.70;;;;;;;-1.51;54.00;100849.41;4960791;28;20811;-71
2021/12/11 04:39:34;;;;;;;24.10;8.63;;;;;;;-1.43;53.22;100850.31;4960326;28;20066;-72
2021/12/11 04:42:13;;;;;;;20.95;9.35;;;;;;;-1.55;53.63;100852.78;4974235;28;20160;-71
2021/12/11 04:44:43;;;;;;;23.50;8.68;;;;;;;-1.55;53.80;100852.78;4962704;28;20536;-71
2021/12/11 04:47:39;;;;;;;26.08;10.05;;;;;;;-1.63;53.74;100854.41;4960779;28;20742;-71
2021/12/11 04:50:16;;;;;;;23.58;9.50;;;;;;;-1.54;53.42;100858.75;4975694;28;20092;-71
2021/12/11 04:53:00;;;;;;;26.88;9.82;;;;;;;-1.51;53.48;100857.09;4952824;28;20050;-72
2021/12/11 04:56:03;;;;;;;25.42;10.48;;;;;;;-1.53;53.62;100856.22;4980266;28;20034;-71
2021/12/11 05:11:11;;;;;;;24.00;9.93;;;;;;;-1.83;54.42;100872.13;4978289;28;20069;-71
2021/12/11 05:13:37;;;;;;;24.00;9.43;;;;;;;-1.75;54.16;100877.34;4965913;28;20050;-71
2021/12/11 05:16:09;;;;;;;19.35;8.80;;;;;;;-1.73;54.09;100879.09;4976091;28;20046;-70
2021/12/11 05:18:36;;;;;;;29.73;9.43;;;;;;;-1.69;54.44;100879.97;4961190;28;20041;-71
2021/12/11 05:21:07;;;;;;;21.42;9.73;;;;;;;-1.76;54.47;100884.16;4966072;28;20018;-71
2021/12/11 05:23:32;;;;;;;23.83;9.70;;;;;;;-1.89;54.52;100896.00;4974675;28;20046;-71
2021/12/11 05:25:58;;;;;;;23.75;9.25;;;;;;;-1.75;54.54;100897.84;4976331;28;20135;-71
2021/12/11 05:28:24;;;;;;;23.15;10.35;;;;;;;-1.81;54.97;100903.75;4957776;28;20057;-71
2021/12/11 05:30:52;;;;;;;24.58;10.07;;;;;;;-1.74;54.11;100897.84;4958509;28;20088;-71
2021/12/11 05:33:19;;;;;;;30.13;11.57;;;;;;;-1.80;54.04;100898.66;4964290;28;20046;-71
2021/12/11 05:35:45;;;;;;;27.52;10.13;;;;;;;-1.87;54.52;100901.97;4973734;28;20057;-71
2021/12/11 05:38:14;;;;;;;28.58;9.50;;;;;;;-1.61;54.03;100898.84;4972423;28;20045;-73
2021/12/11 05:40:43;;;;;;;22.75;10.27;;;;;;;-1.55;54.12;100906.63;4958700;28;20034;-71
2021/12/11 05:43:10;;;;;;;29.48;11.50;;;;;;;-1.65;54.88;100922.72;4957523;28;20510;-71
2021/12/11 05:45:37;;;;;;;28.17;10.77;;;;;;;-1.48;54.40;100920.34;4960408;28;20042;-73
2021/12/11 05:48:03;;;;;;;26.80;10.88;;;;;;;-1.55;54.46;100919.44;4942283;28;20066;-71
2021/12/11 05:50:37;;;;;;;30.02;10.93;;;;;;;-1.64;54.63;100924.47;4995947;22;20073;-72
2021/12/11 05:53:04;;;;;;;28.08;10.88;;;;;;;-1.49;54.12;100924.59;4993564;28;20057;-73
2021/12/11 05:55:31;;;;;;;26.67;10.75;;;;;;;-1.50;54.17;100935.72;4999498;28;20483;-72
2021/12/11 05:58:02;;;;;;;28.63;9.68;;;;;;;-1.63;54.56;100942.41;4991688;28;20037;-72
2021/12/11 06:00:34;;;;;;;27.55;9.50;;;;;;;-1.49;54.31;100941.69;4990335;28;20038;-73
2021/12/11 06:03:02;;;;;;;27.52;10.18;;;;;;;-1.59;54.56;100948.44;4970448;28;20043;-73
2021/12/11 06:05:28;;;;;;;32.60;11.52;;;;;;;-1.62;54.87;100954.38;4966292;28;20038;-72
2021/12/11 06:07:54;;;;;;;26.65;10.50;;;;;;;-1.38;54.33;100950.38;4980097;28;20042;-71
2021/12/11 06:10:22;;;;;;;21.58;9.27;;;;;;;-1.29;54.24;100947.03;4964696;28;20032;-72
2021/12/11 06:12:50;;;;;;;25.75;10.40;;;;;;;-1.51;54.53;100957.09;4976894;28;20050;-72
2021/12/11 06:15:16;;;;;;;26.15;10.70;;;;;;;-1.52;54.68;100960.47;4980626;28;20038;-72
2021/12/11 06:17:43;;;;;;;25.38;11.10;;;;;;;-1.35;54.80;100962.34;4973595;28;20046;-73
2021/12/11 06:20:12;;;;;;;26.75;12.07;;;;;;;-1.51;54.68;100967.34;4966586;28;20484;-72
2021/12/11 06:22:40;;;;;;;26.38;9.85;;;;;;;-1.30;54.53;100971.81;4968509;28;20038;-72
2021/12/11 06:25:10;;;;;;;28.23;10.50;;;;;;;-1.18;54.57;100981.34;4968800;28;20031;-73
2021/12/11 06:27:36;;;;;;;27.60;10.43;;;;;;;-1.16;54.45;100984.78;4967462;28;20505;-73
2021/12/11 06:30:04;;;;;;;26.42;11.07;;;;;;;-0.94;54.29;100988.47;4967853;28;20148;-72
2021/12/11 06:32:30;;;;;;;20.60;10.50;;;;;;;-0.97;54.02;100981.59;4956329;28;20124;-73
2021/12/11 06:34:58;;;;;;;27.08;10.65;;;;;;;-0.97;54.34;100988.44;4967617;28;20545;-72
2021/12/11 06:37:23;;;;;;;26.00;11.23;;;;;;;-0.98;54.12;101005.53;4949924;28;20420;-73
2021/12/11 06:39:51;;;;;;;20.20;10.02;;;;;;;-0.95;54.12;101001.28;4970067;28;20031;-72
2021/12/11 06:42:18;;;;;;;24.83;9.82;;;;;;;-1.21;54.14;100992.44;4983078;28;20043;-73
2021/12/11 06:44:45;;;;;;;25.77;10.95;;;;;;;-0.98;53.86;101000.38;4962517;28;20034;-72
2021/12/11 06:47:11;;;;;;;27.10;11.45;;;;;;;-1.11;54.02;101006.22;4962510;28;20046;-73
2021/12/11 06:49:41;;;;;;;32.63;12.65;;;;;;;-1.18;54.56;100999.31;4966327;28;20029;-72
2021/12/11 06:52:16;;;;;;;26.98;12.40;;;;;;;-1.13;54.41;101012.16;4962447;28;20039;-72
2021/12/11 06:54:43;;;;;;;24.42;11.68;;;;;;;-1.09;54.35;101019.91;4981353;28;20030;-72
2021/12/11 06:57:08;;;;;;;24.45;11.38;;;;;;;-0.90;54.26;101012.47;4985528;28;20121;-72
2021/12/11 06:59:34;;;;;;;23.00;10.60;;;;;;;-0.90;53.74;101017.59;4979855;28;20121;-72
2021/12/11 07:02:00;;;;;;;24.00;11.18;;;;;;;-0.86;54.14;101009.06;4967494;28;20499;-72
2021/12/11 07:04:26;;;;;;;23.85;11.13;;;;;;;-0.99;54.17;101014.09;4984808;28;20623;-72
2021/12/11 07:06:54;;;;;;;22.50;10.82;;;;;;;-1.16;54.84;101015.56;4982992;28;20039;-72
2021/12/11 07:09:21;;;;;;;22.70;9.98;;;;;;;-1.37;54.79;101013.63;4966228;28;20037;-72
2021/12/11 07:11:50;;;;;;;24.23;10.73;;;;;;;-1.04;54.46;101020.88;4962682;28;20681;-72
2021/12/11 07:14:18;;;;;;;21.80;11.13;;;;;;;-1.42;55.18;101028.97;4971530;28;20030;-73
2021/12/11 07:16:45;;;;;;;26.70;11.10;;;;;;;-1.08;54.67;101029.34;4965115;28;20108;-73
2021/12/11 07:19:11;;;;;;;23.02;10.43;;;;;;;-1.05;54.68;101026.84;4952145;28;20471;-72
2021/12/11 07:21:38;;;;;;;24.25;10.35;;;;;;;-1.56;56.52;101043.31;4970030;28;20058;-73
2021/12/11 07:24:06;;;;;;;32.40;11.45;;;;;;;-1.03;54.84;101027.72;4957817;28;20488;-72
2021/12/11 07:26:34;;;;;;;26.08;11.57;;;;;;;-0.85;54.54;101039.88;4984442;28;20073;-72
2021/12/11 07:29:07;;;;;;;25.17;11.05;;;;;;;-0.86;54.55;101044.97;4972302;28;20431;-73
2021/12/11 07:31:33;;;;;;;24.48;10.82;;;;;;;-0.89;54.49;101052.66;4971536;28;20027;-72
2021/12/11 07:33:59;;;;;;;26.90;11.82;;;;;;;-0.76;54.32;101067.34;4968402;28;20050;-73
2021/12/11 07:36:27;;;;;;;25.27;10.40;;;;;;;-0.67;54.20;101072.56;4969708;28;20030;-73
2021/12/11 07:38:54;;;;;;;22.88;10.63;;;;;;;-0.72;54.21;101069.09;4984330;28;20034;-72
2021/12/11 07:41:20;;;;;;;25.05;10.48;;;;;;;-1.05;54.89;101075.59;4972538;28;20014;-72
2021/12/11 07:43:47;;;;;;;24.83;11.65;;;;;;;-0.78;54.50;101071.59;4969914;28;20144;-72
2021/12/11 07:46:16;;;;;;;22.73;11.30;;;;;;;-0.86;54.56;101076.66;4983285;28;20022;-72
2021/12/11 07:48:44;;;;;;;24.00;10.55;;;;;;;-0.77;54.09;101070.75;4980569;28;20065;-72
2021/12/11 07:51:10;;;;;;;26.40;10.75;;;;;;;-0.62;54.13;101081.16;4954000;28;20068;-72
2021/12/11 07:53:36;;;;;;;31.58;12.30;;;;;;;-1.20;55.50;101098.44;4977641;28;20035;-72
2021/12/11 07:56:03;;;;;;;22.65;10.00;;;;;;;-0.69;54.68;101094.78;4966342;28;20065;-72
2021/12/11 07:58:32;;;;;;;25.33;10.73;;;;;;;-0.64;54.37;101090.56;4949220;28;20404;-73
2021/12/11 08:00:59;;;;;;;28.10;11.15;;;;;;;-0.82;54.76;101104.06;4966366;28;20683;-72
2021/12/11 08:03:25;;;;;;;27.52;11.43;;;;;;;-1.11;55.07;101108.81;4965306;28;20250;-72
2021/12/11 08:05:52;;;;;;;20.77;10.55;;;;;;;-0.72;54.12;101109.31;4957781;28;20076;-72
2021/12/11 08:08:19;;;;;;;23.02;10.30;;;;;;;-1.23;55.24;101116.38;4965729;28;20058;-72
2021/12/11 08:10:48;;;;;;;21.98;10.20;;;;;;;-1.11;54.88;101118.22;4967740;28;20046;-73
2021/12/11 08:13:13;;;;;;;19.90;10.32;;;;;;;-1.30;55.42;101119.72;4985708;28;20236;-72
2021/12/11 08:15:40;;;;;;;26.05;10.68;;;;;;;-1.24;55.49;101124.91;4966933;28;20113;-72
2021/12/11 08:18:08;;;;;;;25.33;10.35;;;;;;;-1.34;55.26;101133.31;4972965;28;20996;-72
2021/12/11 08:20:37;;;;;;;21.88;10.63;;;;;;;-1.22;55.49;101134.34;4961926;28;20556;-73
2021/12/11 08:23:04;;;;;;;31.75;12.10;;;;;;;-1.38;55.05;101135.84;4968122;28;20041;-73
2021/12/11 08:25:31;;;;;;;31.38;11.82;;;;;;;-0.89;54.24;101142.47;4984772;28;20145;-73
2021/12/11 08:27:58;;;;;;;26.58;12.23;;;;;;;-0.86;54.07;101145.06;4984667;28;20069;-72
2021/12/11 08:30:27;;;;;;;30.52;13.15;;;;;;;-0.69;54.33;101150.41;4952358;28;20085;-72
2021/12/11 08:32:53;;;;;;;28.23;12.18;;;;;;;-0.61;53.64;101154.78;4966734;28;20074;-72
2021/12/11 08:35:19;;;;;;;23.05;11.88;;;;;;;-0.72;54.05;101161.50;4967260;28;20034;-72
2021/12/11 08:37:48;;;;;;;22.67;10.38;;;;;;;-0.57;53.45;101153.97;4968189;28;20053;-72
2021/12/11 08:40:19;;;;;;;26.77;11.50;;;;;;;-0.74;53.58;101158.06;4951774;28;20035;-72
2021/12/11 08:42:45;;;;;;;27.48;12.13;;;;;;;-0.42;52.89;101162.66;4968099;28;20035;-73
2021/12/11 08:45:20;;;;;;;24.05;11.32;;;;;;;0.09;53.17;101166.56;4967535;28;20121;-73
2021/12/11 08:47:47;;;;;;;26.50;11.27;;;;;;;0.28;51.83;101168.44;4970079;28;20132;-72
2021/12/11 08:50:18;;;;;;;25.55;11.07;;;;;;;0.77;50.89;101167.91;4966232;28;20030;-73
2021/12/11 08:52:45;;;;;;;19.67;10.52;;;;;;;0.88;49.97;101167.91;4978450;28;20509;-73
2021/12/11 08:55:15;;;;;;;24.52;10.45;;;;;;;0.52;50.31;101174.59;4981303;28;20073;-73
2021/12/11 08:57:41;;;;;;;27.95;11.45;;;;;;;0.12;51.27;101174.28;4957959;28;20122;-72
2021/12/11 09:00:23;;;;;;;22.00;11.35;;;;;;;0.01;51.42;101183.63;4954442;28;20108;-73
2021/12/11 09:02:54;;;;;;;27.90;10.75;;;;;;;-0.02;51.84;101186.16;4984116;28;20073;-72
2021/12/11 09:05:27;;;;;;;23.00;10.93;;;;;;;-0.20;52.56;101186.88;4980510;28;20030;-73
2021/12/11 09:07:55;;;;;;;;;;;;;;;0.06;52.56;101203.38;4981956;28;20186;-73
2021/12/11 09:10:29;;;;;;;21.70;9.75;;;;;;;0.56;51.41;101193.47;4971257;28;19988;-73
2021/12/11 09:13:00;;;;;;;26.35;10.18;;;;;;;-0.76;53.67;101203.38;4951178;28;20038;-72
2021/12/11 09:15:38;;;;;;;18.02;10.05;;;;;;;0.24;52.08;101205.25;4978909;28;21234;-72
2021/12/11 09:18:15;;;;;;;25.38;10.93;;;;;;;0.45;51.15;101211.41;4963814;28;20031;-72
2021/12/11 09:20:50;;;;;;;21.65;12.23;;;;;;;0.34;50.98;101206.19;4976944;28;20666;-72
2021/12/11 09:23:25;;;;;;;30.95;11.85;;;;;;;0.53;50.94;101211.47;4947021;28;20041;-73
2021/12/11 09:25:55;;;;;;;21.85;10.10;;;;;;;0.39;51.33;101213.91;4951190;28;20078;-71
2021/12/11 09:28:27;;;;;;;26.00;12.38;;;;;;;0.65;50.68;101219.25;4979332;28;20097;-72
2021/12/11 09:31:16;;;;;;;24.45;11.35;;;;;;;0.60;50.78;101219.22;4985967;28;20089;-72
2021/12/11 09:34:14;;;;;;;22.08;11.15;;;;;;;0.47;50.86;101222.56;4965411;28;20786;-73
2021/12/11 09:36:44;;;;;;;30.23;12.05;;;;;;;0.72;51.13;101228.72;4975751;28;20804;-72
2021/12/11 09:39:19;;;;;;;21.48;10.23;;;;;;;0.53;51.54;101234.63;4960967;28;20050;-72
2021/12/11 09:41:44;;;;;;;26.75;11.30;;;;;;;0.67;51.05;101241.56;4975536;28;20355;-73
2021/12/11 09:44:17;;;;;;;24.75;10.70;;;;;;;0.76;51.24;101245.06;4968419;28;20037;-73
2021/12/11 09:46:48;;;;;;;23.95;12.55;;;;;;;0.61;51.32;101250.97;4975714;28;20493;-73
2021/12/11 09:49:19;;;;;;;25.45;11.63;;;;;;;0.44;51.75;101261.97;4984261;28;20475;-73
2021/12/11 09:51:47;;;;;;;28.57;13.10;;;;;;;0.57;51.88;101255.25;4966804;28;20057;-73
2021/12/11 09:54:23;;;;;;;27.40;11.82;;;;;;;0.65;51.03;101258.69;4985591;28;20265;-73
2021/12/11 09:56:58;;;;;;;25.60;12.40;;;;;;;0.46;51.35;101264.56;4948369;28;20038;-73
2021/12/11 09:59:28;;;;;;;26.42;11.13;;;;;;;0.34;51.93;101255.03;4956163;28;20424;-73
2021/12/11 10:02:03;;;;;;;27.30;11.77;;;;;;;0.63;51.61;101254.41;4974886;28;20041;-73
2021/12/11 10:04:35;;;;;;;26.10;11.70;;;;;;;0.76;51.23;101260.50;4981104;28;20030;-72
2021/12/11 10:09:49;;;;;;;25.45;10.23;;;;;;;0.95;50.85;101264.94;4977724;28;20472;-72
2021/12/11 10:12:18;;;;;;;25.25;11.23;;;;;;;0.86;50.82;101267.44;4980882;28;20595;-73
2021/12/11 10:14:56;;;;;;;29.73;12.05;;;;;;;1.03;50.84;101270.97;4964716;28;20076;-73
2021/12/11 10:17:26;;;;;;;25.75;10.48;;;;;;;1.05;50.91;101270.97;4967754;28;20038;-72
2021/12/11 10:19:59;;;;;;;25.73;11.68;;;;;;;0.70;51.56;101271.59;4972666;28;20082;-72
2021/12/11 10:22:36;;;;;;;24.33;10.80;;;;;;;0.60;51.70;101268.09;4951377;28;20038;-73
2021/12/11 10:25:07;;;;;;;29.55;12.13;;;;;;;1.04;51.58;101272.72;4977114;28;20030;-73
2021/12/11 10:27:33;;;;;;;27.33;12.18;;;;;;;1.03;50.87;101278.69;4979852;28;20435;-72
2021/12/11 10:30:00;;;;;;;25.20;11.65;;;;;;;0.95;51.51;101274.34;4973255;28;20101;-73
2021/12/11 10:32:30;;;;;;;23.05;10.60;;;;;;;1.31;50.57;101271.13;4970227;28;20043;-74
2021/12/11 10:35:04;;;;;;;29.58;11.13;;;;;;;1.83;49.66;101265.34;4958779;28;20704;-72
2021/12/11 10:37:36;;;;;;;27.02;10.98;;;;;;;1.20;50.51;101267.66;4981017;28;20070;-73
2021/12/11 10:40:23;;;;;;;28.70;11.18;;;;;;;1.28;50.98;101265.94;4963692;28;20042;-72
2021/12/11 10:42:56;;;;;;;22.30;10.70;;;;;;;0.91;51.38;101265.75;4970161;28;20046;-72
2021/12/11 10:45:22;;;;;;;22.88;9.65;;;;;;;0.90;51.40;101269.16;4971790;28;20038;-73
2021/12/11 10:48:00;;;;;;;25.25;10.48;;;;;;;0.69;51.51;101283.59;4962801;28;20534;-73
2021/12/11 10:50:34;;;;;;;28.00;11.05;;;;;;;0.89;52.07;101273.47;4986923;28;20039;-73
2021/12/11 10:53:05;;;;;;;23.08;10.65;;;;;;;1.23;50.88;101272.81;4948532;28;20128;-73
2021/12/11 10:55:33;;;;;;;23.25;9.45;;;;;;;1.07;51.24;101282.16;4982796;28;20105;-72
2021/12/11 10:58:04;;;;;;;26.50;11.38;;;;;;;1.03;51.90;101281.25;4967806;28;20793;-72
2021/12/11 11:00:34;;;;;;;22.77;9.85;;;;;;;1.26;51.45;101284.00;4987227;28;20117;-72
2021/12/11 11:02:59;;;;;;;21.15;10.50;;;;;;;1.38;51.00;101288.34;4972023;28;20099;-72
2021/12/11 11:05:29;;;;;;;23.65;9.00;;;;;;;1.10;51.13;101295.91;4980787;28;20492;-73
2021/12/11 11:07:56;;;;;;;21.13;10.68;;;;;;;1.34;51.20;101301.19;4982394;28;20137;-72
2021/12/11 11:10:31;;;;;;;22.50;9.68;;;;;;;1.41;51.00;101298.66;4986708;28;20022;-72
2021/12/11 11:13:04;;;;;;;20.08;9.32;;;;;;;1.54;50.35;101304.75;4971183;28;20034;-72
2021/12/11 11:15:30;;;;;;;18.48;9.23;;;;;;;1.65;49.79;101302.22;4969762;28;20053;-72
2021/12/11 11:17:56;;;;;;;19.70;10.20;;;;;;;1.57;49.93;101304.75;4979488;28;20134;-72
2021/12/11 11:20:32;;;;;;;23.70;10.25;;;;;;;1.34;49.90;101299.47;4961825;28;20053;-72
2021/12/11 11:22:59;;;;;;;25.02;10.30;;;;;;;1.14;50.59;101309.66;4987202;28;20030;-72
2021/12/11 11:25:29;;;;;;;25.75;10.70;;;;;;;1.69;49.95;101303.97;4966509;28;20038;-73
2021/12/11 11:28:00;;;;;;;23.88;10.32;;;;;;;1.92;49.22;101301.44;4981269;28;20038;-73
2021/12/11 11:30:32;;;;;;;32.75;11.73;;;;;;;2.64;48.50;101304.13;4986394;28;21519;-73
2021/12/11 11:32:59;;;;;;;30.65;11.05;;;;;;;2.01;49.10;101313.50;4965701;28;20034;-72
2021/12/11 11:35:29;;;;;;;23.63;10.43;;;;;;;2.75;48.52;101311.88;4940745;28;20038;-73
2021/12/11 11:38:02;;;;;;;19.95;10.23;;;;;;;2.48;48.81;101311.00;4980574;28;20039;-73
2021/12/11 11:40:32;;;;;;;18.92;9.50;;;;;;;2.64;48.32;101303.28;4972777;28;20038;-73
2021/12/11 11:42:58;;;;;;;23.88;9.60;;;;;;;2.73;47.77;101309.31;4984461;28;20089;-72
2021/12/11 11:45:25;;;;;;;22.33;9.68;;;;;;;2.66;48.04;101312.72;4966750;28;20073;-72